Kivalina Airport
PAVL : rendu visible

Aérodrome :











RETROUVEZ-NOUS SUR...

 
LOGIN :

S'inscrire | Disclaimer

   EN    FR    IT 

 









Légende :    VFR   VFR Marginal   IFR   IFR Intensif   IFR Très Intensif
Visi : 
Plafond : 
>= 8 km
>= 3000ft
5 à 8 km
1000 à 3000 ft
1500m à 5 km
500 à 1000 ft
800 à 1500m
200 à 500 ft
< 800m
< 200 ft
Symboles :   Orages  Brouillard  Fortes neiges  Fortes précipitations  Vent > 20 kt






- Altitude de l'aérodrome : 13 ft
- Code IATA : KVL


PAVL - Kivalina

DERNIER METAR :
  • 091726Z AUTO 06004KT 3SM -SN OVC017 M17/M21 A3021 RMK AO2 P0000 T11671211 TSNO $

METARs EXPIRÉS :
  • 091718Z AUTO 05004KT 2 1/2SM -SN OVC017 M18/M22 A3022 RMK AO2 P0000 T11781217 TSNO $
  • 091653Z AUTO 06005KT 1 1/2SM -SN OVC017 M16/M22 A3021 RMK AO2 SLP230 P0000 T11611222 TSNO $
  • 091607Z AUTO 08006KT 1 3/4SM -SN FEW008 SCT011 OVC018 M15/M23 A3021 RMK AO2 P0000 T11501233 TSNO $
  • 091553Z AUTO 08005KT 1 1/2SM -SN BKN011 OVC019 M18/M23 A3020 RMK AO2 SNB17 SLP228 P0000 T11781233 TSNO $
  • 091534Z AUTO 06005KT 2SM -SN OVC012 M20/M23 A3020 RMK AO2 SNB17 P0000 T12001233 TSNO $
  • 091504Z AUTO 10006KT 10SM OVC010 M16/M24 A3019 RMK AO2 T11611239 TSNO $
  • 091453Z AUTO 07006KT 9SM OVC009 M16/M24 A3019 RMK AO2 SNB26E38 SLP222 P0000 60000 T11611244 51019 TSNO $
  • 091446Z AUTO 08007KT 9SM OVC009 M14/M24 A3018 RMK AO2 SNB26E38 P0000 T11391239 TSNO $
  • 091433Z AUTO 08006KT 4SM -SN BKN010 M17/M24 A3018 RMK AO2 SNB26 P0000 T11721239 TSNO $

TAF N/A



MET'MAP, la Météo Aéronautique d'un coup d'oeil ! - Copyright ORBIFLY Décembre 2007 - Disclaimer

ORBIFLY MET'MAP TEAM :

Programmation & Développement : Alexandra Zaïnal
Sur une idée originale de : Baudouin d'Aumeries
Assistance à la programmation : Marc-Olivier Méhu
Soutien technique & logistique : Manuel Goepfert

Contact : metmap@orbifly.com




SOURCES & CREDITS :

   NOAA       Earth
Advisory